sensor_id;sensor_type;location;lat;lon;timestamp;temperature;humidity
57719;DHT22;43561;50.090;18.522;2024-01-25T00:00:26;6.90;99.90
57719;DHT22;43561;50.090;18.522;2024-01-25T00:10:28;6.90;99.90
57719;DHT22;43561;50.090;18.522;2024-01-25T00:20:30;6.80;99.90
57719;DHT22;43561;50.090;18.522;2024-01-25T00:30:32;6.70;99.90
57719;DHT22;43561;50.090;18.522;2024-01-25T00:40:34;6.90;99.90
57719;DHT22;43561;50.090;18.522;2024-01-25T00:50:37;7.00;99.90
57719;DHT22;43561;50.090;18.522;2024-01-25T01:00:39;7.00;99.90
57719;DHT22;43561;50.090;18.522;2024-01-25T01:10:42;7.10;99.90
57719;DHT22;43561;50.090;18.522;2024-01-25T01:20:44;7.10;99.90
57719;DHT22;43561;50.090;18.522;2024-01-25T01:30:46;7.00;99.90
57719;DHT22;43561;50.090;18.522;2024-01-25T01:40:48;7.00;99.90
57719;DHT22;43561;50.090;18.522;2024-01-25T01:50:51;7.00;99.90
57719;DHT22;43561;50.090;18.522;2024-01-25T02:00:55;6.90;99.90
57719;DHT22;43561;50.090;18.522;2024-01-25T02:10:57;6.90;99.90
57719;DHT22;43561;50.090;18.522;2024-01-25T02:20:59;6.80;99.90
57719;DHT22;43561;50.090;18.522;2024-01-25T02:31:03;6.80;99.90
57719;DHT22;43561;50.090;18.522;2024-01-25T02:41:05;6.70;99.90
57719;DHT22;43561;50.090;18.522;2024-01-25T02:51:07;6.80;99.90
57719;DHT22;43561;50.090;18.522;2024-01-25T03:01:12;6.80;99.90
57719;DHT22;43561;50.090;18.522;2024-01-25T03:11:18;6.60;99.90
57719;DHT22;43561;50.090;18.522;2024-01-25T03:21:20;6.60;99.90
57719;DHT22;43561;50.090;18.522;2024-01-25T03:31:31;6.60;99.90
57719;DHT22;43561;50.090;18.522;2024-01-25T03:41:33;6.60;99.90
57719;DHT22;43561;50.090;18.522;2024-01-25T03:51:35;6.60;99.90
57719;DHT22;43561;50.090;18.522;2024-01-25T04:01:46;6.50;99.90
57719;DHT22;43561;50.090;18.522;2024-01-25T04:11:48;6.50;99.90
57719;DHT22;43561;50.090;18.522;2024-01-25T04:21:51;6.50;99.90
57719;DHT22;43561;50.090;18.522;2024-01-25T04:31:56;6.60;99.90
57719;DHT22;43561;50.090;18.522;2024-01-25T04:41:58;6.60;99.90
57719;DHT22;43561;50.090;18.522;2024-01-25T04:52:00;6.60;99.90
57719;DHT22;43561;50.090;18.522;2024-01-25T05:02:02;6.60;99.90
57719;DHT22;43561;50.090;18.522;2024-01-25T05:12:04;6.40;99.90
57719;DHT22;43561;50.090;18.522;2024-01-25T05:22:07;6.40;99.90
57719;DHT22;43561;50.090;18.522;2024-01-25T05:32:09;6.60;99.90
57719;DHT22;43561;50.090;18.522;2024-01-25T05:42:10;6.60;99.90
57719;DHT22;43561;50.090;18.522;2024-01-25T05:52:13;6.40;99.90
57719;DHT22;43561;50.090;18.522;2024-01-25T06:02:15;6.50;99.90
57719;DHT22;43561;50.090;18.522;2024-01-25T06:12:17;6.40;99.90
57719;DHT22;43561;50.090;18.522;2024-01-25T06:22:19;6.50;99.90
57719;DHT22;43561;50.090;18.522;2024-01-25T06:32:21;6.50;99.90
57719;DHT22;43561;50.090;18.522;2024-01-25T06:42:27;6.60;99.90
57719;DHT22;43561;50.090;18.522;2024-01-25T06:52:30;6.60;99.90
57719;DHT22;43561;50.090;18.522;2024-01-25T07:02:32;6.70;99.90
57719;DHT22;43561;50.090;18.522;2024-01-25T07:12:35;6.70;99.90
57719;DHT22;43561;50.090;18.522;2024-01-25T07:22:37;6.50;99.90
57719;DHT22;43561;50.090;18.522;2024-01-25T07:32:39;6.20;99.90
57719;DHT22;43561;50.090;18.522;2024-01-25T07:42:41;6.00;99.90
57719;DHT22;43561;50.090;18.522;2024-01-25T07:52:43;6.00;99.90
57719;DHT22;43561;50.090;18.522;2024-01-25T08:02:45;5.70;99.90
57719;DHT22;43561;50.090;18.522;2024-01-25T08:12:47;5.60;99.90
57719;DHT22;43561;50.090;18.522;2024-01-25T08:22:56;5.80;99.90
57719;DHT22;43561;50.090;18.522;2024-01-25T08:32:58;6.00;99.90
57719;DHT22;43561;50.090;18.522;2024-01-25T08:43:04;6.10;99.90
57719;DHT22;43561;50.090;18.522;2024-01-25T08:53:09;6.20;99.90
57719;DHT22;43561;50.090;18.522;2024-01-25T09:03:11;6.20;99.90
57719;DHT22;43561;50.090;18.522;2024-01-25T09:13:13;6.30;99.90
57719;DHT22;43561;50.090;18.522;2024-01-25T09:23:15;6.40;99.90
57719;DHT22;43561;50.090;18.522;2024-01-25T09:33:17;6.60;99.90
57719;DHT22;43561;50.090;18.522;2024-01-25T09:43:19;6.70;99.90
57719;DHT22;43561;50.090;18.522;2024-01-25T09:53:23;6.80;99.90
57719;DHT22;43561;50.090;18.522;2024-01-25T10:03:26;6.80;99.90
57719;DHT22;43561;50.090;18.522;2024-01-25T10:13:28;6.90;99.90
57719;DHT22;43561;50.090;18.522;2024-01-25T10:23:30;6.90;99.90
57719;DHT22;43561;50.090;18.522;2024-01-25T10:33:33;6.80;99.90
57719;DHT22;43561;50.090;18.522;2024-01-25T10:43:37;6.60;99.90
57719;DHT22;43561;50.090;18.522;2024-01-25T10:53:40;6.60;99.90
57719;DHT22;43561;50.090;18.522;2024-01-25T11:03:42;6.80;99.90
57719;DHT22;43561;50.090;18.522;2024-01-25T11:13:45;6.70;99.90
57719;DHT22;43561;50.090;18.522;2024-01-25T11:23:47;6.80;99.90
57719;DHT22;43561;50.090;18.522;2024-01-25T11:33:49;6.70;99.90
57719;DHT22;43561;50.090;18.522;2024-01-25T11:43:52;6.60;99.90
57719;DHT22;43561;50.090;18.522;2024-01-25T11:53:56;6.60;99.90
57719;DHT22;43561;50.090;18.522;2024-01-25T12:03:58;6.60;99.90
57719;DHT22;43561;50.090;18.522;2024-01-25T12:14:00;6.70;99.90
57719;DHT22;43561;50.090;18.522;2024-01-25T12:24:02;6.80;99.90
57719;DHT22;43561;50.090;18.522;2024-01-25T12:34:13;7.00;99.90
57719;DHT22;43561;50.090;18.522;2024-01-25T12:44:16;7.00;99.90
57719;DHT22;43561;50.090;18.522;2024-01-25T12:54:18;6.70;99.90
57719;DHT22;43561;50.090;18.522;2024-01-25T13:04:20;6.40;99.90
57719;DHT22;43561;50.090;18.522;2024-01-25T13:14:23;6.20;99.90
57719;DHT22;43561;50.090;18.522;2024-01-25T13:24:25;6.20;99.90
57719;DHT22;43561;50.090;18.522;2024-01-25T13:34:27;6.10;99.90
57719;DHT22;43561;50.090;18.522;2024-01-25T13:44:30;6.20;99.90
57719;DHT22;43561;50.090;18.522;2024-01-25T13:54:33;6.20;99.90
57719;DHT22;43561;50.090;18.522;2024-01-25T14:04:35;6.30;99.90
57719;DHT22;43561;50.090;18.522;2024-01-25T14:14:37;6.30;99.90
57719;DHT22;43561;50.090;18.522;2024-01-25T14:24:40;6.30;99.90
57719;DHT22;43561;50.090;18.522;2024-01-25T14:34:42;6.40;99.90
57719;DHT22;43561;50.090;18.522;2024-01-25T14:44:44;6.40;99.90
57719;DHT22;43561;50.090;18.522;2024-01-25T14:54:46;6.40;99.90
57719;DHT22;43561;50.090;18.522;2024-01-25T15:04:48;6.30;99.90
57719;DHT22;43561;50.090;18.522;2024-01-25T15:14:50;6.20;99.90
57719;DHT22;43561;50.090;18.522;2024-01-25T15:24:55;6.10;99.90
57719;DHT22;43561;50.090;18.522;2024-01-25T15:34:57;6.20;99.90
57719;DHT22;43561;50.090;18.522;2024-01-25T15:44:59;6.10;99.90
57719;DHT22;43561;50.090;18.522;2024-01-25T15:55:01;5.90;99.90
57719;DHT22;43561;50.090;18.522;2024-01-25T16:05:04;5.80;99.90
57719;DHT22;43561;50.090;18.522;2024-01-25T16:15:08;5.80;99.90
57719;DHT22;43561;50.090;18.522;2024-01-25T16:25:11;5.80;99.90
57719;DHT22;43561;50.090;18.522;2024-01-25T16:35:13;5.80;99.90
57719;DHT22;43561;50.090;18.522;2024-01-25T16:45:15;5.80;99.90
57719;DHT22;43561;50.090;18.522;2024-01-25T16:55:17;5.90;99.90
57719;DHT22;43561;50.090;18.522;2024-01-25T17:05:19;5.90;99.90
57719;DHT22;43561;50.090;18.522;2024-01-25T17:15:21;5.90;99.90
57719;DHT22;43561;50.090;18.522;2024-01-25T17:25:23;5.90;99.90
57719;DHT22;43561;50.090;18.522;2024-01-25T17:35:25;5.90;99.90
57719;DHT22;43561;50.090;18.522;2024-01-25T17:45:27;5.90;99.90
57719;DHT22;43561;50.090;18.522;2024-01-25T17:55:29;6.00;99.90
57719;DHT22;43561;50.090;18.522;2024-01-25T18:05:31;5.90;99.90
57719;DHT22;43561;50.090;18.522;2024-01-25T18:15:33;5.90;99.90
57719;DHT22;43561;50.090;18.522;2024-01-25T18:25:35;5.80;99.90
57719;DHT22;43561;50.090;18.522;2024-01-25T18:35:37;5.70;99.90
57719;DHT22;43561;50.090;18.522;2024-01-25T18:45:42;5.50;99.90
57719;DHT22;43561;50.090;18.522;2024-01-25T18:55:44;5.50;99.90
57719;DHT22;43561;50.090;18.522;2024-01-25T19:05:47;5.60;99.90
57719;DHT22;43561;50.090;18.522;2024-01-25T19:15:52;5.50;99.90
57719;DHT22;43561;50.090;18.522;2024-01-25T19:25:56;5.60;99.90
57719;DHT22;43561;50.090;18.522;2024-01-25T19:35:57;5.60;99.90
57719;DHT22;43561;50.090;18.522;2024-01-25T19:45:59;5.70;99.90
57719;DHT22;43561;50.090;18.522;2024-01-25T19:56:02;5.70;99.90
57719;DHT22;43561;50.090;18.522;2024-01-25T20:06:04;5.60;99.90
57719;DHT22;43561;50.090;18.522;2024-01-25T20:16:09;5.50;99.90
57719;DHT22;43561;50.090;18.522;2024-01-25T20:26:11;5.50;99.90
57719;DHT22;43561;50.090;18.522;2024-01-25T20:36:13;5.50;99.90
57719;DHT22;43561;50.090;18.522;2024-01-25T20:46:15;5.40;99.90
57719;DHT22;43561;50.090;18.522;2024-01-25T20:56:17;5.40;99.90
57719;DHT22;43561;50.090;18.522;2024-01-25T21:06:25;5.40;99.90
57719;DHT22;43561;50.090;18.522;2024-01-25T21:16:42;5.30;99.90
57719;DHT22;43561;50.090;18.522;2024-01-25T21:26:43;5.30;99.90
57719;DHT22;43561;50.090;18.522;2024-01-25T21:36:46;5.20;99.90
57719;DHT22;43561;50.090;18.522;2024-01-25T21:46:48;5.20;99.90
57719;DHT22;43561;50.090;18.522;2024-01-25T21:56:52;5.10;99.90
57719;DHT22;43561;50.090;18.522;2024-01-25T22:06:54;5.00;99.90
57719;DHT22;43561;50.090;18.522;2024-01-25T22:16:56;5.00;99.90
57719;DHT22;43561;50.090;18.522;2024-01-25T22:26:58;4.90;99.90
57719;DHT22;43561;50.090;18.522;2024-01-25T22:37:00;4.90;99.90
57719;DHT22;43561;50.090;18.522;2024-01-25T22:47:02;4.80;99.90
57719;DHT22;43561;50.090;18.522;2024-01-25T22:57:07;4.70;99.90
57719;DHT22;43561;50.090;18.522;2024-01-25T23:07:09;4.60;99.90
57719;DHT22;43561;50.090;18.522;2024-01-25T23:17:11;4.50;99.90
57719;DHT22;43561;50.090;18.522;2024-01-25T23:27:13;4.40;99.90
57719;DHT22;43561;50.090;18.522;2024-01-25T23:37:15;4.30;99.90
57719;DHT22;43561;50.090;18.522;2024-01-25T23:47:17;4.30;99.90
57719;DHT22;43561;50.090;18.522;2024-01-25T23:57:19;4.20;99.90
